sensor_id;sensor_type;location;lat;lon;timestamp;P1;durP1;ratioP1;P2;durP2;ratioP2
11572;SDS011;5842;52.426;4.886;2022-11-27T00:02:23;15.57;;;6.93;;
11572;SDS011;5842;52.426;4.886;2022-11-27T00:04:51;13.87;;;6.97;;
11572;SDS011;5842;52.426;4.886;2022-11-27T00:07:18;18.97;;;7.30;;
11572;SDS011;5842;52.426;4.886;2022-11-27T00:09:45;17.13;;;7.57;;
11572;SDS011;5842;52.426;4.886;2022-11-27T00:12:12;14.50;;;6.80;;
11572;SDS011;5842;52.426;4.886;2022-11-27T00:14:39;19.63;;;7.30;;
11572;SDS011;5842;52.426;4.886;2022-11-27T00:17:07;17.30;;;7.63;;
11572;SDS011;5842;52.426;4.886;2022-11-27T00:19:35;16.60;;;7.03;;
11572;SDS011;5842;52.426;4.886;2022-11-27T00:22:02;19.93;;;7.03;;
11572;SDS011;5842;52.426;4.886;2022-11-27T00:24:29;18.07;;;7.40;;
11572;SDS011;5842;52.426;4.886;2022-11-27T00:26:56;15.90;;;6.77;;
11572;SDS011;5842;52.426;4.886;2022-11-27T00:29:23;12.97;;;6.80;;
11572;SDS011;5842;52.426;4.886;2022-11-27T00:31:53;21.17;;;7.17;;
11572;SDS011;5842;52.426;4.886;2022-11-27T00:34:22;13.57;;;6.60;;
11572;SDS011;5842;52.426;4.886;2022-11-27T00:36:49;14.03;;;6.73;;
11572;SDS011;5842;52.426;4.886;2022-11-27T00:39:17;12.43;;;6.10;;
11572;SDS011;5842;52.426;4.886;2022-11-27T00:41:45;14.33;;;6.47;;
11572;SDS011;5842;52.426;4.886;2022-11-27T00:44:12;19.57;;;6.87;;
11572;SDS011;5842;52.426;4.886;2022-11-27T00:46:42;15.53;;;6.50;;
11572;SDS011;5842;52.426;4.886;2022-11-27T00:49:09;14.70;;;6.30;;
11572;SDS011;5842;52.426;4.886;2022-11-27T00:51:40;13.70;;;6.10;;
11572;SDS011;5842;52.426;4.886;2022-11-27T00:54:07;16.50;;;6.30;;
11572;SDS011;5842;52.426;4.886;2022-11-27T00:56:35;14.70;;;6.00;;
11572;SDS011;5842;52.426;4.886;2022-11-27T00:59:03;16.27;;;6.40;;
11572;SDS011;5842;52.426;4.886;2022-11-27T01:01:33;12.80;;;5.80;;
11572;SDS011;5842;52.426;4.886;2022-11-27T01:04:01;12.97;;;5.63;;
11572;SDS011;5842;52.426;4.886;2022-11-27T01:06:30;13.97;;;6.33;;
11572;SDS011;5842;52.426;4.886;2022-11-27T01:08:59;11.03;;;5.37;;
11572;SDS011;5842;52.426;4.886;2022-11-27T01:11:27;9.70;;;5.73;;
11572;SDS011;5842;52.426;4.886;2022-11-27T01:13:59;14.87;;;5.70;;
11572;SDS011;5842;52.426;4.886;2022-11-27T01:16:29;12.23;;;5.77;;
11572;SDS011;5842;52.426;4.886;2022-11-27T01:18:58;12.07;;;5.73;;
11572;SDS011;5842;52.426;4.886;2022-11-27T01:21:27;14.67;;;5.40;;
11572;SDS011;5842;52.426;4.886;2022-11-27T01:23:56;14.23;;;5.70;;
11572;SDS011;5842;52.426;4.886;2022-11-27T01:26:26;14.07;;;5.83;;
11572;SDS011;5842;52.426;4.886;2022-11-27T01:28:54;11.60;;;5.57;;
11572;SDS011;5842;52.426;4.886;2022-11-27T01:31:22;13.20;;;5.33;;
11572;SDS011;5842;52.426;4.886;2022-11-27T01:33:51;13.83;;;5.87;;
11572;SDS011;5842;52.426;4.886;2022-11-27T01:36:19;13.37;;;5.53;;
11572;SDS011;5842;52.426;4.886;2022-11-27T01:38:47;13.53;;;5.33;;
11572;SDS011;5842;52.426;4.886;2022-11-27T01:41:16;14.93;;;5.80;;
11572;SDS011;5842;52.426;4.886;2022-11-27T01:43:46;15.37;;;5.50;;
11572;SDS011;5842;52.426;4.886;2022-11-27T01:46:21;15.57;;;5.70;;
11572;SDS011;5842;52.426;4.886;2022-11-27T01:48:56;14.43;;;5.37;;
11572;SDS011;5842;52.426;4.886;2022-11-27T01:51:26;12.20;;;5.23;;
11572;SDS011;5842;52.426;4.886;2022-11-27T01:53:53;12.30;;;5.53;;
11572;SDS011;5842;52.426;4.886;2022-11-27T01:56:22;12.63;;;5.60;;
11572;SDS011;5842;52.426;4.886;2022-11-27T01:58:50;14.63;;;5.43;;
11572;SDS011;5842;52.426;4.886;2022-11-27T02:01:18;13.67;;;5.77;;
11572;SDS011;5842;52.426;4.886;2022-11-27T02:03:48;14.50;;;5.57;;
11572;SDS011;5842;52.426;4.886;2022-11-27T02:06:15;18.37;;;5.60;;
11572;SDS011;5842;52.426;4.886;2022-11-27T02:08:42;13.10;;;5.20;;
11572;SDS011;5842;52.426;4.886;2022-11-27T02:11:12;13.03;;;5.73;;
11572;SDS011;5842;52.426;4.886;2022-11-27T02:13:44;11.87;;;5.53;;
11572;SDS011;5842;52.426;4.886;2022-11-27T02:16:17;13.07;;;5.07;;
11572;SDS011;5842;52.426;4.886;2022-11-27T02:18:51;14.37;;;5.27;;
11572;SDS011;5842;52.426;4.886;2022-11-27T02:21:25;12.27;;;5.30;;
11572;SDS011;5842;52.426;4.886;2022-11-27T02:24:00;12.40;;;4.90;;
11572;SDS011;5842;52.426;4.886;2022-11-27T02:30:00;13.17;;;5.23;;
11572;SDS011;5842;52.426;4.886;2022-11-27T02:32:30;9.73;;;4.67;;
11572;SDS011;5842;52.426;4.886;2022-11-27T02:35:02;10.10;;;4.70;;
11572;SDS011;5842;52.426;4.886;2022-11-27T02:37:35;14.47;;;4.93;;
11572;SDS011;5842;52.426;4.886;2022-11-27T02:40:09;11.37;;;5.23;;
11572;SDS011;5842;52.426;4.886;2022-11-27T02:42:39;16.90;;;5.13;;
11572;SDS011;5842;52.426;4.886;2022-11-27T02:45:13;14.33;;;4.80;;
11572;SDS011;5842;52.426;4.886;2022-11-27T02:47:43;14.17;;;5.20;;
11572;SDS011;5842;52.426;4.886;2022-11-27T02:50:13;9.07;;;4.23;;
11572;SDS011;5842;52.426;4.886;2022-11-27T02:52:44;12.13;;;4.70;;
11572;SDS011;5842;52.426;4.886;2022-11-27T02:55:14;10.10;;;5.10;;
11572;SDS011;5842;52.426;4.886;2022-11-27T02:57:45;7.47;;;4.50;;
11572;SDS011;5842;52.426;4.886;2022-11-27T03:00:16;10.70;;;4.97;;
11572;SDS011;5842;52.426;4.886;2022-11-27T03:02:44;11.30;;;4.70;;
11572;SDS011;5842;52.426;4.886;2022-11-27T03:05:16;9.73;;;4.50;;
11572;SDS011;5842;52.426;4.886;2022-11-27T03:07:46;11.83;;;4.43;;
11572;SDS011;5842;52.426;4.886;2022-11-27T03:10:19;12.23;;;4.23;;
11572;SDS011;5842;52.426;4.886;2022-11-27T03:12:49;19.40;;;4.60;;
11572;SDS011;5842;52.426;4.886;2022-11-27T03:15:19;7.17;;;4.10;;
11572;SDS011;5842;52.426;4.886;2022-11-27T03:17:51;11.07;;;4.20;;
11572;SDS011;5842;52.426;4.886;2022-11-27T03:20:22;10.17;;;4.37;;
11572;SDS011;5842;52.426;4.886;2022-11-27T03:22:52;11.13;;;3.60;;
11572;SDS011;5842;52.426;4.886;2022-11-27T03:25:20;8.50;;;4.37;;
11572;SDS011;5842;52.426;4.886;2022-11-27T03:27:49;12.07;;;4.53;;
11572;SDS011;5842;52.426;4.886;2022-11-27T03:30:22;10.23;;;4.27;;
11572;SDS011;5842;52.426;4.886;2022-11-27T03:32:50;9.80;;;4.00;;
11572;SDS011;5842;52.426;4.886;2022-11-27T03:35:19;10.03;;;4.57;;
11572;SDS011;5842;52.426;4.886;2022-11-27T03:37:48;9.80;;;4.10;;
11572;SDS011;5842;52.426;4.886;2022-11-27T03:40:16;10.80;;;4.30;;
11572;SDS011;5842;52.426;4.886;2022-11-27T03:42:47;8.83;;;4.60;;
11572;SDS011;5842;52.426;4.886;2022-11-27T03:45:28;7.53;;;3.97;;
11572;SDS011;5842;52.426;4.886;2022-11-27T03:48:05;9.50;;;4.27;;
11572;SDS011;5842;52.426;4.886;2022-11-27T03:50:45;10.10;;;4.40;;
11572;SDS011;5842;52.426;4.886;2022-11-27T03:53:19;12.93;;;4.10;;
11572;SDS011;5842;52.426;4.886;2022-11-27T03:55:54;10.70;;;4.37;;
11572;SDS011;5842;52.426;4.886;2022-11-27T03:58:28;8.07;;;3.90;;
11572;SDS011;5842;52.426;4.886;2022-11-27T04:01:02;13.33;;;4.33;;
11572;SDS011;5842;52.426;4.886;2022-11-27T04:03:31;13.70;;;5.13;;
11572;SDS011;5842;52.426;4.886;2022-11-27T04:05:58;12.00;;;4.20;;
11572;SDS011;5842;52.426;4.886;2022-11-27T04:08:25;11.17;;;4.57;;
11572;SDS011;5842;52.426;4.886;2022-11-27T04:10:55;9.10;;;4.30;;
11572;SDS011;5842;52.426;4.886;2022-11-27T04:13:22;10.07;;;4.27;;
11572;SDS011;5842;52.426;4.886;2022-11-27T04:15:49;8.77;;;4.33;;
11572;SDS011;5842;52.426;4.886;2022-11-27T04:18:18;10.43;;;4.00;;
11572;SDS011;5842;52.426;4.886;2022-11-27T04:20:45;10.10;;;4.03;;
11572;SDS011;5842;52.426;4.886;2022-11-27T04:23:12;9.70;;;3.83;;
11572;SDS011;5842;52.426;4.886;2022-11-27T04:25:39;9.60;;;4.10;;
11572;SDS011;5842;52.426;4.886;2022-11-27T04:28:06;7.60;;;3.87;;
11572;SDS011;5842;52.426;4.886;2022-11-27T04:30:33;10.47;;;3.93;;
11572;SDS011;5842;52.426;4.886;2022-11-27T04:33:01;13.03;;;4.67;;
11572;SDS011;5842;52.426;4.886;2022-11-27T04:35:29;9.70;;;4.03;;
11572;SDS011;5842;52.426;4.886;2022-11-27T04:37:56;9.47;;;4.33;;
11572;SDS011;5842;52.426;4.886;2022-11-27T04:40:24;7.63;;;3.80;;
11572;SDS011;5842;52.426;4.886;2022-11-27T04:42:51;11.17;;;4.27;;
11572;SDS011;5842;52.426;4.886;2022-11-27T04:45:19;9.00;;;4.57;;
11572;SDS011;5842;52.426;4.886;2022-11-27T04:47:46;8.07;;;4.27;;
11572;SDS011;5842;52.426;4.886;2022-11-27T04:50:13;9.37;;;3.87;;
11572;SDS011;5842;52.426;4.886;2022-11-27T04:52:42;8.93;;;3.80;;
11572;SDS011;5842;52.426;4.886;2022-11-27T04:55:09;9.33;;;4.43;;
11572;SDS011;5842;52.426;4.886;2022-11-27T04:57:37;10.80;;;3.77;;
11572;SDS011;5842;52.426;4.886;2022-11-27T05:00:04;6.87;;;3.70;;
11572;SDS011;5842;52.426;4.886;2022-11-27T05:02:32;7.80;;;4.03;;
11572;SDS011;5842;52.426;4.886;2022-11-27T05:04:59;10.20;;;4.20;;
11572;SDS011;5842;52.426;4.886;2022-11-27T05:07:26;8.87;;;4.00;;
11572;SDS011;5842;52.426;4.886;2022-11-27T05:09:55;10.17;;;4.20;;
11572;SDS011;5842;52.426;4.886;2022-11-27T05:12:22;8.10;;;3.50;;
11572;SDS011;5842;52.426;4.886;2022-11-27T05:14:50;7.10;;;3.83;;
11572;SDS011;5842;52.426;4.886;2022-11-27T05:17:17;8.03;;;4.03;;
11572;SDS011;5842;52.426;4.886;2022-11-27T05:19:44;6.37;;;3.57;;
11572;SDS011;5842;52.426;4.886;2022-11-27T05:22:11;8.33;;;3.60;;
11572;SDS011;5842;52.426;4.886;2022-11-27T05:24:38;7.80;;;3.90;;
11572;SDS011;5842;52.426;4.886;2022-11-27T05:27:07;10.70;;;4.23;;
11572;SDS011;5842;52.426;4.886;2022-11-27T05:29:34;11.30;;;4.20;;
11572;SDS011;5842;52.426;4.886;2022-11-27T05:32:03;6.70;;;3.97;;
11572;SDS011;5842;52.426;4.886;2022-11-27T05:34:30;10.07;;;4.40;;
11572;SDS011;5842;52.426;4.886;2022-11-27T05:36:58;9.67;;;4.70;;
11572;SDS011;5842;52.426;4.886;2022-11-27T05:39:25;12.10;;;4.40;;
11572;SDS011;5842;52.426;4.886;2022-11-27T05:41:54;9.40;;;4.30;;
11572;SDS011;5842;52.426;4.886;2022-11-27T05:44:22;8.70;;;4.13;;
11572;SDS011;5842;52.426;4.886;2022-11-27T05:46:51;9.67;;;4.00;;
11572;SDS011;5842;52.426;4.886;2022-11-27T05:49:21;8.10;;;4.10;;
11572;SDS011;5842;52.426;4.886;2022-11-27T05:51:48;8.30;;;4.17;;
11572;SDS011;5842;52.426;4.886;2022-11-27T05:54:15;11.27;;;4.50;;
11572;SDS011;5842;52.426;4.886;2022-11-27T05:56:43;9.07;;;4.10;;
11572;SDS011;5842;52.426;4.886;2022-11-27T05:59:10;9.53;;;4.50;;
11572;SDS011;5842;52.426;4.886;2022-11-27T06:01:39;6.50;;;4.37;;
11572;SDS011;5842;52.426;4.886;2022-11-27T06:04:06;9.23;;;4.20;;
11572;SDS011;5842;52.426;4.886;2022-11-27T06:06:33;11.23;;;4.27;;
11572;SDS011;5842;52.426;4.886;2022-11-27T06:09:00;10.43;;;4.20;;
11572;SDS011;5842;52.426;4.886;2022-11-27T06:11:27;9.00;;;4.40;;
11572;SDS011;5842;52.426;4.886;2022-11-27T06:13:54;9.63;;;4.20;;
11572;SDS011;5842;52.426;4.886;2022-11-27T06:16:22;9.40;;;4.30;;
11572;SDS011;5842;52.426;4.886;2022-11-27T06:18:52;7.13;;;3.63;;
11572;SDS011;5842;52.426;4.886;2022-11-27T06:21:21;7.97;;;4.20;;
11572;SDS011;5842;52.426;4.886;2022-11-27T06:23:51;8.73;;;3.80;;
11572;SDS011;5842;52.426;4.886;2022-11-27T06:26:20;9.47;;;4.40;;
11572;SDS011;5842;52.426;4.886;2022-11-27T06:28:48;10.53;;;4.47;;
11572;SDS011;5842;52.426;4.886;2022-11-27T06:31:16;8.50;;;4.00;;
11572;SDS011;5842;52.426;4.886;2022-11-27T06:33:45;10.60;;;4.50;;
11572;SDS011;5842;52.426;4.886;2022-11-27T06:36:14;9.37;;;4.27;;
11572;SDS011;5842;52.426;4.886;2022-11-27T06:38:43;8.90;;;4.20;;
11572;SDS011;5842;52.426;4.886;2022-11-27T06:41:11;9.30;;;4.23;;
11572;SDS011;5842;52.426;4.886;2022-11-27T06:43:40;8.30;;;4.40;;
11572;SDS011;5842;52.426;4.886;2022-11-27T06:46:08;8.63;;;4.17;;
11572;SDS011;5842;52.426;4.886;2022-11-27T06:48:39;7.53;;;3.97;;
11572;SDS011;5842;52.426;4.886;2022-11-27T06:51:07;9.93;;;4.57;;
11572;SDS011;5842;52.426;4.886;2022-11-27T06:53:38;8.93;;;4.00;;
11572;SDS011;5842;52.426;4.886;2022-11-27T06:56:06;7.50;;;4.27;;
11572;SDS011;5842;52.426;4.886;2022-11-27T06:58:34;11.57;;;4.20;;
11572;SDS011;5842;52.426;4.886;2022-11-27T07:01:02;7.97;;;4.00;;
11572;SDS011;5842;52.426;4.886;2022-11-27T07:03:31;8.57;;;4.07;;
11572;SDS011;5842;52.426;4.886;2022-11-27T07:05:58;8.37;;;3.87;;
11572;SDS011;5842;52.426;4.886;2022-11-27T07:08:26;9.17;;;3.93;;
11572;SDS011;5842;52.426;4.886;2022-11-27T07:10:59;8.40;;;4.13;;
11572;SDS011;5842;52.426;4.886;2022-11-27T07:13:27;10.77;;;3.90;;
11572;SDS011;5842;52.426;4.886;2022-11-27T07:15:57;8.33;;;4.03;;
11572;SDS011;5842;52.426;4.886;2022-11-27T07:18:26;5.97;;;3.90;;
11572;SDS011;5842;52.426;4.886;2022-11-27T07:38:56;8.07;;;4.17;;
11572;SDS011;5842;52.426;4.886;2022-11-27T07:41:24;8.70;;;4.40;;
11572;SDS011;5842;52.426;4.886;2022-11-27T07:43:51;7.80;;;4.17;;
11572;SDS011;5842;52.426;4.886;2022-11-27T07:46:19;10.23;;;4.23;;
11572;SDS011;5842;52.426;4.886;2022-11-27T07:48:47;8.33;;;4.20;;
11572;SDS011;5842;52.426;4.886;2022-11-27T07:51:15;7.27;;;3.90;;
11572;SDS011;5842;52.426;4.886;2022-11-27T07:53:44;12.93;;;4.33;;
11572;SDS011;5842;52.426;4.886;2022-11-27T07:56:14;5.70;;;3.50;;
11572;SDS011;5842;52.426;4.886;2022-11-27T07:58:42;5.93;;;3.67;;
11572;SDS011;5842;52.426;4.886;2022-11-27T08:01:09;11.30;;;4.17;;
11572;SDS011;5842;52.426;4.886;2022-11-27T08:03:37;8.47;;;4.10;;
11572;SDS011;5842;52.426;4.886;2022-11-27T08:06:11;6.47;;;3.90;;
11572;SDS011;5842;52.426;4.886;2022-11-27T08:08:39;8.57;;;4.23;;
11572;SDS011;5842;52.426;4.886;2022-11-27T08:11:14;8.83;;;3.90;;
11572;SDS011;5842;52.426;4.886;2022-11-27T08:13:42;9.90;;;3.93;;
11572;SDS011;5842;52.426;4.886;2022-11-27T08:16:09;11.93;;;3.80;;
11572;SDS011;5842;52.426;4.886;2022-11-27T08:18:37;7.00;;;3.63;;
11572;SDS011;5842;52.426;4.886;2022-11-27T08:21:04;8.30;;;3.90;;
11572;SDS011;5842;52.426;4.886;2022-11-27T08:23:31;7.07;;;3.83;;
11572;SDS011;5842;52.426;4.886;2022-11-27T08:25:58;6.37;;;3.67;;
11572;SDS011;5842;52.426;4.886;2022-11-27T08:28:27;7.60;;;3.80;;
11572;SDS011;5842;52.426;4.886;2022-11-27T08:30:54;8.87;;;4.20;;
11572;SDS011;5842;52.426;4.886;2022-11-27T08:33:22;10.53;;;4.23;;
11572;SDS011;5842;52.426;4.886;2022-11-27T08:35:50;7.00;;;3.97;;
11572;SDS011;5842;52.426;4.886;2022-11-27T08:38:18;7.63;;;4.00;;
11572;SDS011;5842;52.426;4.886;2022-11-27T08:40:52;9.70;;;4.00;;
11572;SDS011;5842;52.426;4.886;2022-11-27T08:43:19;5.93;;;3.60;;
11572;SDS011;5842;52.426;4.886;2022-11-27T08:45:48;6.70;;;3.83;;
11572;SDS011;5842;52.426;4.886;2022-11-27T08:48:15;8.37;;;4.37;;
11572;SDS011;5842;52.426;4.886;2022-11-27T08:50:43;8.90;;;4.07;;
11572;SDS011;5842;52.426;4.886;2022-11-27T08:53:10;9.53;;;4.33;;
11572;SDS011;5842;52.426;4.886;2022-11-27T08:55:37;7.47;;;3.83;;
11572;SDS011;5842;52.426;4.886;2022-11-27T08:58:04;9.47;;;4.07;;
11572;SDS011;5842;52.426;4.886;2022-11-27T09:00:32;10.27;;;3.70;;
11572;SDS011;5842;52.426;4.886;2022-11-27T09:03:01;9.57;;;4.10;;
11572;SDS011;5842;52.426;4.886;2022-11-27T09:05:29;12.90;;;4.23;;
11572;SDS011;5842;52.426;4.886;2022-11-27T09:07:57;8.53;;;4.00;;
11572;SDS011;5842;52.426;4.886;2022-11-27T09:10:26;9.20;;;3.70;;
11572;SDS011;5842;52.426;4.886;2022-11-27T09:12:53;9.30;;;4.20;;
11572;SDS011;5842;52.426;4.886;2022-11-27T09:15:20;7.73;;;4.20;;
11572;SDS011;5842;52.426;4.886;2022-11-27T09:17:47;9.33;;;4.33;;
11572;SDS011;5842;52.426;4.886;2022-11-27T09:20:17;8.97;;;4.20;;
11572;SDS011;5842;52.426;4.886;2022-11-27T09:22:45;9.00;;;4.40;;
11572;SDS011;5842;52.426;4.886;2022-11-27T09:25:12;9.20;;;4.10;;
11572;SDS011;5842;52.426;4.886;2022-11-27T09:27:39;8.17;;;4.40;;
11572;SDS011;5842;52.426;4.886;2022-11-27T09:30:07;9.90;;;4.47;;
11572;SDS011;5842;52.426;4.886;2022-11-27T09:32:35;8.77;;;4.43;;
11572;SDS011;5842;52.426;4.886;2022-11-27T09:35:02;10.10;;;4.60;;
11572;SDS011;5842;52.426;4.886;2022-11-27T09:37:31;8.63;;;4.43;;
11572;SDS011;5842;52.426;4.886;2022-11-27T09:39:58;9.20;;;4.47;;
11572;SDS011;5842;52.426;4.886;2022-11-27T09:42:30;9.07;;;4.40;;
11572;SDS011;5842;52.426;4.886;2022-11-27T09:45:03;9.30;;;4.70;;
11572;SDS011;5842;52.426;4.886;2022-11-27T09:47:34;9.47;;;4.43;;
11572;SDS011;5842;52.426;4.886;2022-11-27T09:50:09;8.47;;;4.57;;
11572;SDS011;5842;52.426;4.886;2022-11-27T09:52:41;10.03;;;4.80;;
11572;SDS011;5842;52.426;4.886;2022-11-27T09:55:17;10.30;;;4.53;;
11572;SDS011;5842;52.426;4.886;2022-11-27T09:57:51;7.33;;;4.13;;
11572;SDS011;5842;52.426;4.886;2022-11-27T10:00:26;8.77;;;4.60;;
11572;SDS011;5842;52.426;4.886;2022-11-27T10:02:53;10.87;;;4.87;;
11572;SDS011;5842;52.426;4.886;2022-11-27T10:05:21;10.33;;;4.83;;
11572;SDS011;5842;52.426;4.886;2022-11-27T10:08:02;10.33;;;5.17;;
11572;SDS011;5842;52.426;4.886;2022-11-27T10:10:49;10.07;;;4.80;;
11572;SDS011;5842;52.426;4.886;2022-11-27T10:13:31;10.90;;;4.87;;
11572;SDS011;5842;52.426;4.886;2022-11-27T10:16:07;13.47;;;5.37;;
11572;SDS011;5842;52.426;4.886;2022-11-27T10:18:40;11.30;;;5.17;;
11572;SDS011;5842;52.426;4.886;2022-11-27T10:21:14;10.70;;;5.27;;
11572;SDS011;5842;52.426;4.886;2022-11-27T10:23:50;11.07;;;5.10;;
11572;SDS011;5842;52.426;4.886;2022-11-27T10:26:22;13.93;;;5.27;;
11572;SDS011;5842;52.426;4.886;2022-11-27T10:29:01;9.57;;;5.00;;
11572;SDS011;5842;52.426;4.886;2022-11-27T10:31:35;10.60;;;5.70;;
11572;SDS011;5842;52.426;4.886;2022-11-27T10:34:12;10.00;;;4.80;;
11572;SDS011;5842;52.426;4.886;2022-11-27T10:36:46;12.47;;;5.63;;
11572;SDS011;5842;52.426;4.886;2022-11-27T10:39:18;10.60;;;5.27;;
11572;SDS011;5842;52.426;4.886;2022-11-27T10:41:53;13.23;;;5.40;;
11572;SDS011;5842;52.426;4.886;2022-11-27T10:44:26;11.37;;;5.40;;
11572;SDS011;5842;52.426;4.886;2022-11-27T10:46:57;10.53;;;5.70;;
11572;SDS011;5842;52.426;4.886;2022-11-27T10:49:27;11.20;;;5.93;;
11572;SDS011;5842;52.426;4.886;2022-11-27T10:51:54;10.83;;;6.27;;
11572;SDS011;5842;52.426;4.886;2022-11-27T10:54:25;12.73;;;5.83;;
11572;SDS011;5842;52.426;4.886;2022-11-27T10:57:00;14.73;;;5.93;;
11572;SDS011;5842;52.426;4.886;2022-11-27T10:59:38;12.03;;;5.70;;
11572;SDS011;5842;52.426;4.886;2022-11-27T11:02:24;11.03;;;5.47;;
11572;SDS011;5842;52.426;4.886;2022-11-27T11:04:53;10.87;;;5.87;;
11572;SDS011;5842;52.426;4.886;2022-11-27T11:07:22;11.07;;;5.83;;
11572;SDS011;5842;52.426;4.886;2022-11-27T11:09:53;10.03;;;5.70;;
11572;SDS011;5842;52.426;4.886;2022-11-27T11:12:21;10.73;;;5.83;;
11572;SDS011;5842;52.426;4.886;2022-11-27T11:14:49;10.00;;;6.27;;
11572;SDS011;5842;52.426;4.886;2022-11-27T11:17:17;9.63;;;5.83;;
11572;SDS011;5842;52.426;4.886;2022-11-27T11:19:49;11.10;;;6.30;;
11572;SDS011;5842;52.426;4.886;2022-11-27T11:22:16;12.90;;;6.70;;
11572;SDS011;5842;52.426;4.886;2022-11-27T11:24:44;7.73;;;5.57;;
11572;SDS011;5842;52.426;4.886;2022-11-27T11:27:15;13.27;;;5.77;;
11572;SDS011;5842;52.426;4.886;2022-11-27T11:29:46;12.10;;;6.00;;
11572;SDS011;5842;52.426;4.886;2022-11-27T11:32:20;10.07;;;5.97;;
11572;SDS011;5842;52.426;4.886;2022-11-27T11:34:52;8.53;;;5.33;;
11572;SDS011;5842;52.426;4.886;2022-11-27T11:37:23;10.33;;;5.60;;
11572;SDS011;5842;52.426;4.886;2022-11-27T11:39:53;11.70;;;5.50;;
11572;SDS011;5842;52.426;4.886;2022-11-27T11:42:25;9.70;;;5.43;;
11572;SDS011;5842;52.426;4.886;2022-11-27T11:45:01;10.97;;;5.97;;
11572;SDS011;5842;52.426;4.886;2022-11-27T11:47:33;12.03;;;6.03;;
11572;SDS011;5842;52.426;4.886;2022-11-27T11:50:04;10.50;;;6.27;;
11572;SDS011;5842;52.426;4.886;2022-11-27T11:52:40;10.23;;;5.80;;
11572;SDS011;5842;52.426;4.886;2022-11-27T11:55:16;10.20;;;5.87;;
11572;SDS011;5842;52.426;4.886;2022-11-27T11:57:57;12.40;;;5.83;;
11572;SDS011;5842;52.426;4.886;2022-11-27T12:00:55;12.00;;;6.67;;
11572;SDS011;5842;52.426;4.886;2022-11-27T12:03:34;9.50;;;5.40;;
11572;SDS011;5842;52.426;4.886;2022-11-27T12:06:27;10.90;;;6.53;;
11572;SDS011;5842;52.426;4.886;2022-11-27T12:09:18;11.23;;;6.60;;
11572;SDS011;5842;52.426;4.886;2022-11-27T12:11:54;9.07;;;6.20;;
11572;SDS011;5842;52.426;4.886;2022-11-27T12:14:37;13.80;;;6.37;;
11572;SDS011;5842;52.426;4.886;2022-11-27T12:17:14;10.77;;;6.30;;
11572;SDS011;5842;52.426;4.886;2022-11-27T12:25:49;11.37;;;6.47;;
11572;SDS011;5842;52.426;4.886;2022-11-27T12:28:31;10.00;;;6.20;;
11572;SDS011;5842;52.426;4.886;2022-11-27T12:31:22;10.93;;;5.93;;
11572;SDS011;5842;52.426;4.886;2022-11-27T12:34:00;9.70;;;6.27;;
11572;SDS011;5842;52.426;4.886;2022-11-27T12:36:38;10.43;;;6.20;;
11572;SDS011;5842;52.426;4.886;2022-11-27T12:39:23;10.17;;;6.37;;
11572;SDS011;5842;52.426;4.886;2022-11-27T12:41:59;11.93;;;6.00;;
11572;SDS011;5842;52.426;4.886;2022-11-27T12:44:38;9.13;;;6.50;;
11572;SDS011;5842;52.426;4.886;2022-11-27T12:47:16;10.47;;;6.57;;
11572;SDS011;5842;52.426;4.886;2022-11-27T12:49:49;9.77;;;5.97;;
11572;SDS011;5842;52.426;4.886;2022-11-27T12:52:21;10.07;;;6.10;;
11572;SDS011;5842;52.426;4.886;2022-11-27T12:54:52;10.67;;;6.73;;
11572;SDS011;5842;52.426;4.886;2022-11-27T12:57:26;11.03;;;6.17;;
11572;SDS011;5842;52.426;4.886;2022-11-27T12:59:59;12.27;;;6.20;;
11572;SDS011;5842;52.426;4.886;2022-11-27T13:02:33;11.20;;;6.37;;
11572;SDS011;5842;52.426;4.886;2022-11-27T13:05:04;10.07;;;6.00;;
11572;SDS011;5842;52.426;4.886;2022-11-27T13:07:35;11.03;;;6.57;;
11572;SDS011;5842;52.426;4.886;2022-11-27T13:10:11;10.77;;;6.90;;
11572;SDS011;5842;52.426;4.886;2022-11-27T13:12:47;10.87;;;6.77;;
11572;SDS011;5842;52.426;4.886;2022-11-27T13:15:18;11.50;;;7.10;;
11572;SDS011;5842;52.426;4.886;2022-11-27T13:17:56;11.80;;;6.93;;
11572;SDS011;5842;52.426;4.886;2022-11-27T13:20:32;12.43;;;6.77;;
11572;SDS011;5842;52.426;4.886;2022-11-27T13:23:02;11.43;;;6.47;;
11572;SDS011;5842;52.426;4.886;2022-11-27T13:25:29;14.90;;;7.00;;
11572;SDS011;5842;52.426;4.886;2022-11-27T13:27:59;10.80;;;6.53;;
11572;SDS011;5842;52.426;4.886;2022-11-27T13:30:30;12.03;;;7.43;;
11572;SDS011;5842;52.426;4.886;2022-11-27T13:33:17;9.07;;;6.00;;
11572;SDS011;5842;52.426;4.886;2022-11-27T13:35:55;12.43;;;7.40;;
11572;SDS011;5842;52.426;4.886;2022-11-27T13:38:23;12.63;;;6.93;;
11572;SDS011;5842;52.426;4.886;2022-11-27T13:40:53;13.37;;;7.23;;
11572;SDS011;5842;52.426;4.886;2022-11-27T13:43:24;14.67;;;6.43;;
11572;SDS011;5842;52.426;4.886;2022-11-27T13:45:59;11.70;;;6.10;;
11572;SDS011;5842;52.426;4.886;2022-11-27T13:48:31;9.73;;;6.23;;
11572;SDS011;5842;52.426;4.886;2022-11-27T13:51:00;10.40;;;6.00;;
11572;SDS011;5842;52.426;4.886;2022-11-27T13:53:32;11.30;;;6.40;;
11572;SDS011;5842;52.426;4.886;2022-11-27T13:56:02;11.23;;;6.67;;
11572;SDS011;5842;52.426;4.886;2022-11-27T13:58:31;11.83;;;7.00;;
11572;SDS011;5842;52.426;4.886;2022-11-27T14:01:10;11.33;;;6.90;;
11572;SDS011;5842;52.426;4.886;2022-11-27T14:03:40;11.17;;;7.33;;
11572;SDS011;5842;52.426;4.886;2022-11-27T14:06:14;11.23;;;6.57;;
11572;SDS011;5842;52.426;4.886;2022-11-27T14:08:47;11.23;;;6.77;;
11572;SDS011;5842;52.426;4.886;2022-11-27T14:11:26;11.07;;;6.50;;
11572;SDS011;5842;52.426;4.886;2022-11-27T14:13:59;9.87;;;6.77;;
11572;SDS011;5842;52.426;4.886;2022-11-27T14:16:28;12.63;;;6.70;;
11572;SDS011;5842;52.426;4.886;2022-11-27T14:19:00;9.70;;;6.73;;
11572;SDS011;5842;52.426;4.886;2022-11-27T14:21:34;13.43;;;6.80;;
11572;SDS011;5842;52.426;4.886;2022-11-27T14:26:52;16.50;;;7.70;;
11572;SDS011;5842;52.426;4.886;2022-11-27T14:29:20;12.10;;;7.07;;
11572;SDS011;5842;52.426;4.886;2022-11-27T14:31:55;10.70;;;6.73;;
11572;SDS011;5842;52.426;4.886;2022-11-27T14:34:25;16.20;;;7.40;;
11572;SDS011;5842;52.426;4.886;2022-11-27T14:36:53;9.43;;;6.47;;
11572;SDS011;5842;52.426;4.886;2022-11-27T14:39:21;13.20;;;6.60;;
11572;SDS011;5842;52.426;4.886;2022-11-27T14:41:57;12.20;;;7.13;;
11572;SDS011;5842;52.426;4.886;2022-11-27T14:44:25;11.50;;;6.87;;
11572;SDS011;5842;52.426;4.886;2022-11-27T14:46:53;13.70;;;7.33;;
11572;SDS011;5842;52.426;4.886;2022-11-27T14:49:23;10.23;;;6.70;;
11572;SDS011;5842;52.426;4.886;2022-11-27T14:51:53;15.00;;;7.17;;
11572;SDS011;5842;52.426;4.886;2022-11-27T14:54:23;11.27;;;7.10;;
11572;SDS011;5842;52.426;4.886;2022-11-27T14:56:52;11.43;;;6.73;;
11572;SDS011;5842;52.426;4.886;2022-11-27T14:59:21;10.90;;;7.23;;
11572;SDS011;5842;52.426;4.886;2022-11-27T15:01:59;13.37;;;7.53;;
11572;SDS011;5842;52.426;4.886;2022-11-27T15:04:28;13.73;;;7.37;;
11572;SDS011;5842;52.426;4.886;2022-11-27T15:07:03;15.03;;;7.00;;
11572;SDS011;5842;52.426;4.886;2022-11-27T15:09:33;12.13;;;7.23;;
11572;SDS011;5842;52.426;4.886;2022-11-27T15:12:03;11.97;;;6.93;;
11572;SDS011;5842;52.426;4.886;2022-11-27T15:14:43;13.53;;;7.70;;
11572;SDS011;5842;52.426;4.886;2022-11-27T15:17:13;11.23;;;7.17;;
11572;SDS011;5842;52.426;4.886;2022-11-27T15:19:42;13.10;;;6.87;;
11572;SDS011;5842;52.426;4.886;2022-11-27T15:22:15;13.90;;;6.97;;
11572;SDS011;5842;52.426;4.886;2022-11-27T15:24:44;15.03;;;7.33;;
11572;SDS011;5842;52.426;4.886;2022-11-27T15:27:19;11.90;;;6.80;;
11572;SDS011;5842;52.426;4.886;2022-11-27T15:30:00;13.10;;;7.13;;
11572;SDS011;5842;52.426;4.886;2022-11-27T15:32:43;12.13;;;6.97;;
11572;SDS011;5842;52.426;4.886;2022-11-27T15:35:18;11.67;;;6.97;;
11572;SDS011;5842;52.426;4.886;2022-11-27T15:37:53;12.20;;;7.23;;
11572;SDS011;5842;52.426;4.886;2022-11-27T15:40:23;11.40;;;7.00;;
11572;SDS011;5842;52.426;4.886;2022-11-27T15:42:54;11.67;;;7.27;;
11572;SDS011;5842;52.426;4.886;2022-11-27T15:45:21;13.03;;;7.37;;